Marsa Alam, Egypt
Current Conditions -  °F | °C
As of 9:00 AM on Friday 31 Oct 2014 (Local Time) from HEMA Reporting Station
Clear Clear  
Wind Chill: 79°   Ceiling: Unl
Heat Index: 79°   Visibility: 6mi
Dew Point: 52°   Wind: 17mph
Humidity: 39%   Direction: 340°NNW
Pressure: 29.97"   Gusts: NA
Location:  25.55°N, 34.58°E
Report Text: HEMA 310700Z 34015KT CAVOK 26/11 Q1015 NOSIG
Loading
Personal Weather Stations






























Interactive Weather Map
Tropical Storm Tracking
New forecast layout! Learn more

10-Day Weather Forecast

Advertisements
Track Severe Weather on mobile